Dom Feliciano, Brazil
Current Conditions -  °F | °C
As of 7:00 PM on Tuesday 27 Jan 2015 (Local Time) from SBPK Reporting Station
Few Clouds Few Clouds  
Wind Chill: 84°   Ceiling: Unl
Heat Index: 98°   Visibility: 6mi
Dew Point: 81°   Wind: 7mph
Humidity: 89%   Direction: 70°ENE
Pressure: 29.74"   Gusts: NA
Location:  30.7°S, 52.11°W
Report Text: SBPK 272100Z 07006KT 9999 FEW030 29/27 Q1007 RETS
Loading
Personal Weather Stations






























Interactive Weather Map New forecast layout! Learn more

10-Day Weather Forecast

Advertisements
Track Severe Weather on mobile